Time;durP1;ratioP1;P1;durP2;ratioP2;P2;SDS_P1;SDS_P2;PMS_P1;PMS_P2;Temp;Humidity;BMP_temperature;BMP_pressure;BME280_temperature;BME280_humidity;BME280_pressure;Samples;Min_cycle;Max_cycle;Signal;HPM_P1;HPM_P2
2023/06/20 00:00:31;;;;;;;3.95;2.20;;;24.30;85.00;;;24.94;77.47;100498.09;5156896;28;20062;-80
2023/06/20 00:03:04;;;;;;;3.72;1.88;;;24.30;85.40;;;24.93;77.95;100496.34;5148623;28;20099;-79
2023/06/20 00:05:37;;;;;;;3.70;2.33;;;24.30;85.90;;;24.89;77.88;100494.69;5164768;28;20046;-82
2023/06/20 00:08:10;;;;;;;3.60;2.15;;;24.30;86.00;;;24.88;78.02;100498.28;5161487;28;20037;-82
2023/06/20 00:10:42;;;;;;;3.05;2.25;;;24.30;86.30;;;24.87;79.41;100508.06;5159206;28;20073;-80
2023/06/20 00:13:17;;;;;;;3.70;2.30;;;24.30;87.20;;;24.86;79.54;100513.44;5171548;28;20047;-79
2023/06/20 00:15:49;;;;;;;3.17;2.10;;;24.30;87.40;;;24.84;79.20;100520.59;5157040;28;20043;-81
2023/06/20 00:18:21;;;;;;;3.28;2.50;;;24.20;87.40;;;24.82;79.62;100512.66;5162395;28;20057;-82
2023/06/20 00:20:55;;;;;;;6.05;2.50;;;24.20;87.70;;;24.83;79.92;100521.50;5171135;28;20061;-82
2023/06/20 00:23:29;;;;;;;4.22;2.63;;;24.20;88.20;;;24.84;81.03;100528.59;5171763;28;20118;-82
2023/06/20 00:26:02;;;;;;;4.28;2.65;;;24.20;89.10;;;24.82;82.13;100530.44;5157783;28;20054;-82
2023/06/20 00:28:34;;;;;;;4.80;2.40;;;24.20;89.80;;;24.80;82.27;100532.28;5171578;28;20117;-80
2023/06/20 00:31:06;;;;;;;3.78;2.55;;;24.20;90.10;;;24.78;83.55;100531.47;5165847;28;20050;-82
2023/06/20 00:33:38;;;;;;;3.15;2.40;;;24.20;90.50;;;24.77;84.85;100535.00;5172988;28;20061;-81
2023/06/20 00:36:12;;;;;;;3.38;2.10;;;24.20;91.00;;;24.74;86.37;100529.78;5169254;28;20055;-82
2023/06/20 00:38:48;;;;;;;4.00;2.58;;;24.10;91.60;;;24.71;87.44;100529.84;5163737;28;20055;-82
2023/06/20 00:41:22;;;;;;;4.15;2.70;;;24.10;92.10;;;24.64;88.51;100522.03;5156903;28;20066;-82
2023/06/20 00:43:54;;;;;;;3.60;2.65;;;24.10;92.70;;;24.59;89.91;100533.75;5156859;28;20134;-82
2023/06/20 00:46:26;;;;;;;4.20;2.47;;;24.00;93.20;;;24.52;91.26;100527.72;5177687;28;20046;-83
2023/06/20 00:49:00;;;;;;;3.50;2.47;;;23.90;93.90;;;24.47;91.78;100534.94;5176593;28;20042;-82
2023/06/20 00:51:34;;;;;;;4.95;2.70;;;23.90;94.40;;;24.39;92.91;100531.63;5160483;28;20053;-82
2023/06/20 00:54:06;;;;;;;;;;;23.80;95.00;;;24.33;94.27;100526.41;5160244;28;20047;-81
2023/06/20 00:56:39;;;;;;;3.92;2.50;;;23.80;95.80;;;24.29;94.42;100524.72;5176193;28;19921;-81
2023/06/20 00:59:11;;;;;;;3.88;2.80;;;23.70;96.10;;;24.21;94.07;100522.28;5161221;28;20046;-81
2023/06/20 01:01:43;;;;;;;4.22;2.55;;;23.60;96.20;;;24.17;94.06;100535.69;5166396;28;20046;-82
2023/06/20 01:04:15;;;;;;;4.00;2.90;;;23.60;96.50;;;24.14;94.76;100531.34;5164902;28;20110;-81
2023/06/20 01:07:00;;;;;;;5.15;2.83;;;23.60;96.90;;;24.10;94.73;100530.53;5157696;28;20515;-80
2023/06/20 01:09:44;;;;;;;3.75;2.58;;;23.60;97.20;;;24.08;94.85;100531.50;5171892;28;20471;-79
2023/06/20 01:12:22;;;;;;;5.00;3.05;;;23.50;97.40;;;24.05;95.46;100532.41;5171227;28;20452;-81
2023/06/20 01:15:03;;;;;;;3.60;2.58;;;23.50;97.80;;;24.03;95.62;100526.25;5164674;28;20039;-81
2023/06/20 01:17:41;;;;;;;3.85;2.63;;;23.50;98.00;;;24.04;95.73;100535.13;5164586;28;20532;-81
2023/06/20 01:20:17;;;;;;;3.65;2.70;;;23.40;98.40;;;24.02;96.70;100537.84;5163707;28;20051;-82
2023/06/20 01:23:02;;;;;;;3.97;2.78;;;23.40;98.70;;;24.01;97.28;100536.09;5157124;28;20050;-83
2023/06/20 01:25:46;;;;;;;4.35;2.70;;;23.40;99.20;;;24.00;98.07;100541.47;5165714;28;20110;-82
2023/06/20 01:28:26;;;;;;;4.13;2.80;;;23.40;99.60;;;23.96;98.18;100537.97;5175646;28;20092;-83
2023/06/20 01:31:04;;;;;;;3.65;2.70;;;23.40;99.80;;;23.91;99.30;100536.34;5157844;28;20062;-82
2023/06/20 01:33:49;;;;;;;3.92;2.80;;;23.40;99.90;;;23.85;99.68;100529.38;5155319;28;20110;-82
2023/06/20 01:36:23;;;;;;;4.07;2.40;;;23.30;99.90;;;23.79;100.00;100529.50;5160619;28;20047;-83
2023/06/20 01:39:03;;;;;;;4.72;2.90;;;23.30;99.90;;;23.73;100.00;100529.66;5157637;28;20046;-81
2023/06/20 01:41:38;;;;;;;3.30;2.38;;;23.20;99.90;;;23.69;100.00;100526.22;5162746;28;20051;-82
2023/06/20 01:44:14;;;;;;;3.65;2.85;;;23.10;99.90;;;23.66;100.00;100523.59;5149713;28;20055;-81
2023/06/20 01:46:48;;;;;;;4.68;2.92;;;23.10;99.90;;;23.64;100.00;100530.75;5156185;28;20074;-80
2023/06/20 01:49:21;;;;;;;5.75;3.10;;;23.10;99.90;;;23.60;100.00;100520.19;5155945;28;20061;-82
2023/06/20 01:51:56;;;;;;;5.32;2.90;;;23.00;99.90;;;23.56;100.00;100528.25;5157947;28;20417;-81
2023/06/20 01:54:33;;;;;;;4.35;2.50;;;23.00;99.90;;;23.54;100.00;100530.06;5177117;28;20047;-78
2023/06/20 01:57:07;;;;;;;4.32;2.42;;;23.00;99.90;;;23.53;100.00;100532.75;5165557;28;20133;-81
2023/06/20 01:59:41;;;;;;;4.00;2.90;;;23.00;99.90;;;23.51;100.00;100524.81;5183286;28;20057;-81
2023/06/20 02:02:14;;;;;;;3.60;2.53;;;22.90;99.90;;;23.50;100.00;100523.06;5163698;28;20066;-81
2023/06/20 02:04:47;;;;;;;3.42;2.20;;;22.90;99.90;;;23.49;100.00;100526.63;5163656;28;20428;-81
2023/06/20 02:07:19;;;;;;;3.10;2.30;;;22.90;99.90;;;23.48;100.00;100516.03;5156514;28;20053;-81
2023/06/20 02:09:54;;;;;;;3.50;2.65;;;22.90;99.90;;;23.47;100.00;100523.16;5155470;28;20050;-80
2023/06/20 02:12:27;;;;;;;3.25;2.42;;;22.90;99.90;;;23.45;100.00;100514.31;5171511;28;20053;-81
2023/06/20 02:15:00;;;;;;;3.55;2.35;;;22.90;99.90;;;23.43;100.00;100516.13;5165245;28;20046;-82
2023/06/20 02:17:35;;;;;;;3.28;2.10;;;22.80;99.90;;;23.37;100.00;100515.41;5175538;28;20038;-81
2023/06/20 02:20:08;;;;;;;3.55;2.40;;;22.80;99.90;;;23.38;100.00;100520.66;5157501;28;20062;-81
2023/06/20 02:22:46;;;;;;;4.18;2.40;;;22.80;99.90;;;23.36;100.00;100519.84;5164383;28;20051;-82
2023/06/20 02:25:26;;;;;;;2.53;2.08;;;22.80;99.90;;;23.35;100.00;100519.88;5162143;28;20056;-82
2023/06/20 02:27:59;;;;;;;3.25;2.25;;;22.80;99.90;;;23.38;100.00;100527.78;5160069;28;20045;-81
2023/06/20 02:30:33;;;;;;;3.05;2.30;;;22.80;99.90;;;23.38;100.00;100520.66;5174657;28;20127;-79
2023/06/20 02:33:07;;;;;;;3.47;2.22;;;22.80;99.90;;;23.38;100.00;100531.31;5172492;28;20085;-80
2023/06/20 02:35:41;;;;;;;3.33;2.28;;;22.80;99.90;;;23.41;100.00;100523.28;5164807;28;20045;-80
2023/06/20 02:38:14;;;;;;;3.00;2.40;;;22.80;99.90;;;23.42;100.00;100519.72;5166355;28;20106;-80
2023/06/20 02:40:47;;;;;;;2.35;2.10;;;22.80;99.90;;;23.44;100.00;100520.53;5171184;28;20045;-79
2023/06/20 02:43:19;;;;;;;2.67;2.20;;;22.80;99.90;;;23.42;100.00;100524.16;5158457;28;20054;-81
2023/06/20 02:46:02;;;;;;;3.10;2.17;;;22.80;99.90;;;23.41;100.00;100530.34;5167569;28;20070;-81
2023/06/20 02:48:41;;;;;;;4.43;2.33;;;22.80;99.90;;;23.40;100.00;100526.81;5185902;28;20062;-80
2023/06/20 02:51:20;;;;;;;3.40;2.50;;;22.80;99.90;;;23.37;100.00;100521.59;5157150;28;20046;-80
2023/06/20 02:54:05;;;;;;;2.65;2.22;;;22.80;99.90;;;23.34;100.00;100521.63;5168632;28;20053;-81
2023/06/20 02:56:43;;;;;;;3.65;2.58;;;22.80;99.90;;;23.29;100.00;100535.06;5167403;28;20042;-81
2023/06/20 02:59:16;;;;;;;3.42;2.38;;;22.70;99.90;;;23.27;100.00;100531.53;5166009;28;20607;-81
2023/06/20 03:01:49;;;;;;;4.82;2.70;;;22.70;99.90;;;23.23;100.00;100524.56;5187643;28;20048;-82
2023/06/20 03:04:21;;;;;;;3.88;2.80;;;22.70;99.90;;;23.19;100.00;100532.63;5165544;28;20095;-80
2023/06/20 03:06:55;;;;;;;5.05;3.35;;;22.60;99.90;;;23.13;100.00;100538.94;5170864;28;20050;-83
2023/06/20 03:09:28;;;;;;;5.85;3.60;;;22.60;99.90;;;23.07;100.00;100525.75;5163793;28;20050;-81
2023/06/20 03:12:03;;;;;;;3.92;2.78;;;22.60;99.90;;;23.04;100.00;100523.19;5169449;28;20143;-79
2023/06/20 03:14:36;;;;;;;4.68;3.05;;;22.50;99.90;;;23.01;100.00;100518.78;5172338;28;20045;-81
2023/06/20 03:17:08;;;;;;;5.35;2.85;;;22.50;99.90;;;23.02;100.00;100520.56;5165930;28;20115;-82
2023/06/20 03:19:40;;;;;;;3.35;2.55;;;22.50;99.90;;;23.00;100.00;100517.03;5156507;28;20448;-80
2023/06/20 03:22:18;;;;;;;4.07;2.70;;;22.50;99.90;;;23.01;100.00;100528.53;5163983;28;20062;-82
2023/06/20 03:24:50;;;;;;;3.55;2.65;;;22.50;99.90;;;22.99;100.00;100531.25;5171056;28;20508;-81
2023/06/20 03:27:24;;;;;;;3.50;2.67;;;22.40;99.90;;;22.98;100.00;100540.13;5164078;28;20050;-82
2023/06/20 03:29:56;;;;;;;4.10;2.80;;;22.40;99.90;;;22.97;100.00;100554.31;5162313;28;20046;-81
2023/06/20 03:32:28;;;;;;;3.90;2.50;;;22.40;99.90;;;22.97;100.00;100553.47;5171963;28;20055;-80
2023/06/20 03:35:00;;;;;;;4.10;2.85;;;22.40;99.90;;;22.93;100.00;100542.00;5170540;28;20110;-82
2023/06/20 03:37:32;;;;;;;4.78;2.80;;;22.40;99.90;;;22.95;100.00;100542.88;5162396;28;20053;-81
2023/06/20 03:40:06;;;;;;;3.83;2.60;;;22.40;99.90;;;22.93;100.00;100547.31;5173008;28;20053;-81
2023/06/20 03:42:43;;;;;;;3.83;2.55;;;22.40;99.90;;;22.91;100.00;100545.59;5190272;28;20049;-81
2023/06/20 03:45:15;;;;;;;3.40;2.30;;;22.40;99.90;;;22.91;100.00;100553.56;5171055;28;20142;-79
2023/06/20 03:47:49;;;;;;;3.63;2.70;;;22.40;99.90;;;22.88;100.00;100543.88;5170704;28;20054;-82
2023/06/20 03:50:22;;;;;;;4.93;3.15;;;22.30;99.90;;;22.85;100.00;100535.94;5158143;28;20042;-81
2023/06/20 03:52:54;;;;;;;4.68;2.88;;;22.30;99.90;;;22.85;100.00;100543.91;5157364;28;20051;-81
2023/06/20 03:55:26;;;;;;;4.53;3.40;;;22.30;99.90;;;22.80;100.00;100535.13;5162269;28;20501;-81
2023/06/20 03:58:00;;;;;;;4.95;3.08;;;22.30;99.90;;;22.76;100.00;100538.78;5154746;28;20102;-80
2023/06/20 04:00:32;;;;;;;4.03;3.05;;;22.30;99.90;;;22.77;100.00;100542.31;5180982;28;20066;-81
2023/06/20 04:03:04;;;;;;;4.63;3.08;;;22.20;99.90;;;22.76;100.00;100538.78;5169692;28;20054;-78
2023/06/20 04:05:36;;;;;;;4.20;3.03;;;22.20;99.90;;;22.77;100.00;100544.97;5153600;28;20047;-80
2023/06/20 04:08:08;;;;;;;4.03;2.70;;;22.20;99.90;;;22.78;100.00;100547.59;5159922;28;20084;-80
2023/06/20 04:10:41;;;;;;;4.70;2.90;;;22.20;99.90;;;22.76;100.00;100541.44;5152895;28;20121;-81
2023/06/20 04:13:15;;;;;;;5.93;2.83;;;22.20;99.90;;;22.77;100.00;100550.28;5156193;28;20247;-81
2023/06/20 04:15:47;;;;;;;5.18;2.65;;;22.20;99.90;;;22.73;100.00;100546.78;5165799;28;20475;-82
2023/06/20 04:18:19;;;;;;;4.10;2.70;;;22.20;99.90;;;22.71;100.00;100557.47;5173851;28;20049;-81
2023/06/20 04:20:51;;;;;;;4.03;2.90;;;22.20;99.90;;;22.66;100.00;100561.09;5157743;28;20047;-80
2023/06/20 04:23:23;;;;;;;5.18;3.05;;;22.10;99.90;;;22.64;100.00;100550.50;5170801;28;20042;-80
2023/06/20 04:25:55;;;;;;;3.95;2.88;;;22.10;99.90;;;22.65;100.00;100554.03;5169469;28;20049;-82
2023/06/20 04:28:29;;;;;;;5.63;2.97;;;22.10;99.90;;;22.62;100.00;100551.41;5165932;28;20042;-78
2023/06/20 04:31:03;;;;;;;4.10;2.83;;;22.10;99.90;;;22.61;100.00;100560.31;5174813;28;20057;-85
2023/06/20 04:33:35;;;;;;;4.47;2.60;;;22.10;99.90;;;22.61;100.00;100561.19;5161681;28;20654;-80
2023/06/20 04:36:12;;;;;;;4.18;2.75;;;22.10;99.90;;;22.61;100.00;100565.63;5161942;28;20550;-80
2023/06/20 04:38:45;;;;;;;4.90;3.25;;;22.10;99.90;;;22.62;100.00;100562.94;5156000;28;20113;-81
2023/06/20 04:41:18;;;;;;;4.72;3.20;;;22.10;99.90;;;22.61;100.00;100560.31;5164812;28;20047;-81
2023/06/20 04:43:51;;;;;;;5.10;2.90;;;22.10;99.90;;;22.54;100.00;100563.97;5164606;28;20043;-81
2023/06/20 04:46:24;;;;;;;4.78;3.05;;;22.10;99.90;;;22.53;100.00;100565.75;5165158;28;20054;-80
2023/06/20 04:48:56;;;;;;;5.53;2.92;;;22.00;99.90;;;22.52;100.00;100564.00;5177940;23;20068;-67
2023/06/20 04:51:28;;;;;;;5.10;3.15;;;22.00;99.90;;;22.46;100.00;100557.03;5166747;28;20042;-67
2023/06/20 04:54:01;;;;;;;4.68;2.40;;;22.00;99.90;;;22.45;100.00;100560.59;5165522;28;20512;-67
2023/06/20 04:56:40;;;;;;;4.63;3.10;;;22.00;99.90;;;22.43;100.00;100562.41;5163266;28;20046;-67
2023/06/20 04:59:15;;;;;;;5.57;2.85;;;22.00;99.90;;;22.43;100.00;100557.09;5163388;28;20046;-68
2023/06/20 05:01:50;;;;;;;5.70;3.10;;;22.00;99.90;;;22.44;100.00;100550.88;5148580;28;20642;-67
2023/06/20 05:04:23;;;;;;;3.70;2.50;;;22.00;99.90;;;22.50;100.00;100551.69;5168542;28;20499;-67
2023/06/20 05:06:56;;;;;;;4.50;2.80;;;22.00;99.90;;;22.50;100.00;100549.91;5177316;28;20050;-67
2023/06/20 05:09:28;;;;;;;3.95;2.60;;;22.00;99.90;;;22.55;100.00;100549.78;5146124;28;20385;-67
2023/06/20 05:12:01;;;;;;;4.13;2.83;;;22.00;99.90;;;22.54;100.00;100546.25;5147861;28;20053;-67
2023/06/20 05:14:35;;;;;;;5.95;3.35;;;22.10;99.90;;;22.52;100.00;100555.16;5166094;28;20042;-67
2023/06/20 05:17:07;;;;;;;4.97;3.65;;;22.10;99.90;;;22.45;100.00;100555.28;5181438;28;20042;-67
2023/06/20 05:19:39;;;;;;;5.80;3.08;;;22.00;99.90;;;22.48;100.00;100557.00;5172069;28;20050;-67
2023/06/20 05:22:11;;;;;;;6.15;3.10;;;22.00;99.90;;;22.51;100.00;100567.56;5169797;28;20042;-67
2023/06/20 05:24:43;;;;;;;4.90;3.03;;;22.00;99.90;;;22.54;100.00;100558.66;5173205;28;20042;-67
2023/06/20 05:27:15;;;;;;;3.58;2.58;;;22.00;99.90;;;22.56;100.00;100557.75;5179799;28;20101;-67
2023/06/20 05:29:49;;;;;;;3.00;2.60;;;22.10;99.90;;;22.60;100.00;100550.59;5176753;28;20061;-66
2023/06/20 05:32:21;;;;;;;4.85;2.97;;;22.10;99.90;;;22.63;100.00;100548.75;5150274;28;20128;-67
2023/06/20 05:34:53;;;;;;;5.25;3.25;;;22.10;99.90;;;22.69;100.00;100558.38;5163396;28;20053;-67
2023/06/20 05:37:28;;;;;;;5.68;3.20;;;22.20;99.90;;;22.72;100.00;100559.22;5168936;28;20072;-66
2023/06/20 05:40:01;;;;;;;3.88;2.67;;;22.20;99.90;;;22.76;100.00;100554.72;5167914;28;20038;-67
2023/06/20 05:42:33;;;;;;;5.75;3.20;;;22.30;99.90;;;23.02;100.00;100565.75;5173590;28;20054;-67
2023/06/20 05:45:08;;;;;;;5.43;3.10;;;22.50;99.90;;;23.23;100.00;100563.56;5161787;28;20420;-67
2023/06/20 05:47:40;;;;;;;4.85;3.22;;;22.70;99.90;;;23.39;100.00;100572.94;5166733;28;20385;-67
2023/06/20 05:50:13;;;;;;;5.70;3.10;;;22.80;99.90;;;23.44;100.00;100576.41;5164966;28;20052;-67
2023/06/20 05:52:45;;;;;;;5.15;3.17;;;22.90;99.90;;;23.50;100.00;100584.25;5150038;28;20050;-67
2023/06/20 05:55:18;;;;;;;4.95;3.47;;;23.00;99.90;;;23.56;100.00;100583.25;5149662;28;20054;-68
2023/06/20 05:57:51;;;;;;;5.55;3.42;;;23.10;99.90;;;23.73;100.00;100582.88;5165696;28;20042;-68
2023/06/20 06:00:26;;;;;;;5.82;3.53;;;23.20;99.90;;;23.81;100.00;100591.59;5172967;28;20057;-68
2023/06/20 06:02:58;;;;;;;8.73;3.80;;;23.20;99.90;;;23.83;100.00;100595.06;5171703;28;20057;-67
2023/06/20 06:05:31;;;;;;;5.35;3.20;;;23.30;99.90;;;23.79;100.00;100594.25;5177264;28;20411;-70
2023/06/20 06:08:03;;;;;;;5.35;3.20;;;23.30;99.90;;;23.84;100.00;100588.84;5168788;28;20042;-69
2023/06/20 06:10:36;;;;;;;5.50;3.72;;;23.30;99.90;;;23.99;100.00;100591.13;5167467;28;20066;-69
2023/06/20 06:13:09;;;;;;;5.95;3.30;;;23.40;99.90;;;24.14;100.00;100595.25;5159324;28;20050;-69
2023/06/20 06:15:43;;;;;;;4.85;3.03;;;23.60;99.90;;;24.40;100.00;100585.78;5178642;28;20046;-69
2023/06/20 06:18:15;;;;;;;5.07;3.63;;;23.80;99.90;;;24.62;100.00;100585.16;5164937;28;20053;-69
2023/06/20 06:20:47;;;;;;;4.60;2.90;;;24.00;99.90;;;25.04;100.00;100590.28;5178795;28;20427;-69
2023/06/20 06:23:19;;;;;;;5.10;3.15;;;24.30;99.90;;;25.35;99.95;100579.59;5176836;28;20128;-69
2023/06/20 06:25:52;;;;;;;6.00;2.95;;;24.60;99.90;;;25.59;98.93;100583.31;5184797;28;20048;-69
2023/06/20 06:28:26;;;;;;;4.82;3.08;;;24.80;99.90;;;25.78;96.21;100588.13;5173723;28;20061;-69
2023/06/20 06:31:00;;;;;;;4.75;3.20;;;25.10;99.90;;;25.95;96.17;100585.78;5179877;28;20048;-69
2023/06/20 06:33:33;;;;;;;4.72;3.10;;;25.20;99.90;;;26.29;94.35;100587.38;5183226;28;20033;-69
2023/06/20 06:36:06;;;;;;;5.82;3.80;;;25.50;99.90;;;26.55;92.10;100583.88;5174713;28;20054;-68
2023/06/20 06:38:38;;;;;;;3.10;2.70;;;25.70;99.90;;;26.64;90.40;100576.38;5171948;28;20042;-69
2023/06/20 06:41:10;;;;;;;5.35;3.30;;;25.90;99.90;;;26.67;90.05;100587.00;5171507;28;20125;-69
2023/06/20 06:43:42;;;;;;;4.93;2.83;;;26.00;99.90;;;26.84;89.87;100585.50;5171266;28;20062;-69
2023/06/20 06:46:18;;;;;;;5.28;3.17;;;26.10;99.90;;;27.07;88.63;100580.25;5172940;28;20050;-69
2023/06/20 06:48:54;;;;;;;5.15;3.10;;;26.30;99.90;;;27.15;87.78;100583.50;5178045;28;20049;-65
2023/06/20 06:51:26;;;;;;;5.68;3.20;;;26.40;99.40;;;27.17;83.78;100575.41;5162438;28;20145;-67
2023/06/20 06:53:58;;;;;;;6.60;3.28;;;26.40;98.40;;;26.85;84.44;100579.22;5179230;28;20044;-62
2023/06/20 06:56:30;;;;;;;4.40;2.92;;;26.30;97.80;;;26.46;88.27;100569.00;5167915;28;20495;-66
2023/06/20 06:59:02;;;;;;;5.20;3.10;;;26.00;98.90;;;26.21;89.69;100567.16;5173973;28;20120;-63
2023/06/20 07:01:35;;;;;;;4.43;2.63;;;25.80;99.20;;;26.18;90.32;100559.22;5174794;28;20743;-63
2023/06/20 07:04:08;;;;;;;4.97;3.05;;;25.70;99.50;;;26.16;90.55;100553.06;5174294;28;20050;-63
2023/06/20 07:06:40;;;;;;;8.68;3.17;;;25.70;99.60;;;26.15;90.90;100556.66;5175154;28;20052;-63
2023/06/20 07:09:12;;;;;;;4.18;3.00;;;25.60;99.60;;;26.20;89.36;100559.16;5167181;28;20049;-63
2023/06/20 07:11:44;;;;;;;5.25;3.17;;;25.60;99.10;;;26.10;91.12;100561.28;5169471;28;20492;-63
2023/06/20 07:14:16;;;;;;;5.38;3.28;;;25.50;99.70;;;26.02;91.90;100559.75;5173289;28;20576;-63
2023/06/20 07:16:49;;;;;;;5.15;3.05;;;25.50;99.90;;;26.08;91.01;100555.13;5183870;28;20045;-63
2023/06/20 07:19:22;;;;;;;4.68;2.80;;;25.50;99.80;;;26.33;91.05;100554.28;5174187;28;20042;-68
2023/06/20 07:21:54;;;;;;;4.22;3.17;;;25.60;99.90;;;26.56;89.68;100541.03;5154970;28;20053;-68
2023/06/20 07:24:26;;;;;;;4.60;2.85;;;25.80;99.70;;;26.77;89.59;100550.97;5155614;28;20440;-68
2023/06/20 07:26:58;;;;;;;5.32;2.58;;;26.00;99.70;;;26.99;88.77;100543.00;5162563;28;20459;-69
2023/06/20 07:29:31;;;;;;;4.75;3.00;;;26.10;99.50;;;27.18;88.06;100539.69;5153582;28;20045;-68
2023/06/20 07:32:06;;;;;;;4.22;2.70;;;26.30;99.30;;;27.35;86.24;100541.75;5162848;28;20408;-68
2023/06/20 07:34:38;;;;;;;4.82;3.30;;;26.50;98.70;;;27.57;85.88;100548.00;5160340;28;20516;-69
2023/06/20 07:37:11;;;;;;;4.72;2.90;;;26.70;98.60;;;27.73;84.63;100546.50;5148389;28;20057;-69
2023/06/20 07:39:46;;;;;;;4.60;3.05;;;26.80;98.10;;;27.96;84.78;100550.03;5166266;28;20385;-68
2023/06/20 07:42:18;;;;;;;4.88;3.33;;;27.00;98.20;;;28.15;81.93;100551.03;5163739;28;20101;-75
2023/06/20 07:44:51;;;;;;;4.78;3.28;;;27.20;97.30;;;28.19;81.70;100546.41;5154601;28;20042;-75
2023/06/20 07:47:24;;;;;;;3.65;3.03;;;27.30;97.00;;;28.31;82.31;100532.53;5161184;28;20055;-67
2023/06/20 07:49:57;;;;;;;6.28;3.20;;;27.40;97.20;;;28.46;80.63;100531.88;5166536;28;20491;-68
2023/06/20 07:52:30;;;;;;;5.78;3.08;;;27.50;96.60;;;28.71;81.00;100528.13;5150039;28;20055;-67
2023/06/20 07:55:03;;;;;;;7.18;3.00;;;27.70;96.60;;;29.01;79.02;100520.50;5156908;28;20050;-66
2023/06/20 07:57:36;;;;;;;4.57;3.10;;;27.90;96.20;;;29.19;77.69;100519.66;5155528;28;20463;-67
2023/06/20 08:00:11;;;;;;;5.68;3.72;;;28.10;95.60;;;29.40;76.95;100517.78;5167664;28;20046;-66
2023/06/20 08:02:45;;;;;;;6.57;3.55;;;28.20;95.30;;;29.61;75.99;100507.88;5163937;28;20082;-68
2023/06/20 08:05:17;;;;;;;5.28;3.67;;;28.40;95.00;;;29.72;74.96;100508.19;5166138;28;20217;-67
2023/06/20 08:07:50;;;;;;;4.82;3.40;;;28.50;94.30;;;30.01;74.12;100514.84;5173724;28;20053;-66
2023/06/20 08:11:58;;;;;;;5.00;3.65;;;28.70;94.10;;;30.60;71.36;100523.50;5270027;27;20425;-67
2023/06/20 08:14:30;;;;;;;4.32;3.42;;;29.10;93.20;;;31.07;70.34;100513.75;5238847;28;20506;-66
2023/06/20 08:17:02;;;;;;;5.75;3.83;;;29.40;92.80;;;31.47;67.85;100516.97;5226801;28;20068;-66
2023/06/20 08:19:34;;;;;;;4.80;3.58;;;29.60;91.80;;;32.01;67.62;100508.50;5247934;28;20061;-68
2023/06/20 08:22:07;;;;;;;3.92;3.15;;;29.90;91.70;;;32.72;65.74;100497.91;5240909;28;20049;-68
2023/06/20 08:24:39;;;;;;;5.07;3.55;;;30.30;91.40;;;33.28;64.62;100500.75;5240122;28;20418;-68
2023/06/20 08:27:12;;;;;;;4.68;3.33;;;30.60;90.90;;;33.95;62.81;100501.75;5236987;28;20704;-69
2023/06/20 08:29:45;;;;;;;;;;;31.00;90.40;;;34.23;60.70;100507.06;5231888;28;20498;-65
2023/06/20 08:32:17;;;;;;;5.25;3.33;;;31.20;87.60;;;34.99;59.33;100513.53;5239398;28;19924;-68
2023/06/20 08:34:49;;;;;;;4.47;3.47;;;31.70;86.90;;;35.82;57.27;100516.47;5241516;28;20048;-68
2023/06/20 08:37:22;;;;;;;5.75;3.72;;;32.10;85.30;;;36.48;54.53;100511.50;5223555;28;20052;-69
2023/06/20 08:39:54;;;;;;;4.00;2.88;;;32.60;81.00;;;37.30;52.91;100517.63;5224008;28;20045;-66
2023/06/20 08:42:30;;;;;;;3.00;2.70;;;33.10;80.10;;;37.90;50.95;100525.34;5240083;28;20052;-66
2023/06/20 08:45:02;;;;;;;3.00;2.67;;;33.80;76.80;;;37.87;50.84;100528.31;5241619;28;20074;-66
2023/06/20 08:47:34;;;;;;;3.60;3.00;;;34.00;75.00;;;37.24;50.37;100529.88;5233030;28;20099;-66
2023/06/20 08:50:08;;;;;;;4.50;3.30;;;34.00;72.50;;;35.88;52.01;100533.16;5256459;28;20049;-69
2023/06/20 08:52:48;;;;;;;4.93;3.42;;;33.50;71.60;;;35.66;53.36;100535.72;5237634;28;20144;-69
2023/06/20 08:55:21;;;;;;;5.13;3.63;;;33.10;73.00;;;36.90;51.49;100524.41;5232028;28;20049;-69
2023/06/20 08:57:56;;;;;;;4.93;3.42;;;33.70;72.50;;;38.26;48.55;100531.41;5256801;28;20048;-69
2023/06/20 09:00:28;;;;;;;3.90;3.20;;;34.50;69.70;;;39.28;46.45;100537.94;5239169;28;20076;-69
2023/06/20 09:03:01;;;;;;;3.97;3.13;;;35.30;68.10;;;39.92;44.35;100534.81;5241281;28;20044;-70
2023/06/20 09:05:33;;;;;;;4.10;3.70;;;35.80;64.80;;;39.91;44.33;100535.84;5237320;28;20049;-70
2023/06/20 09:08:07;;;;;;;4.18;3.33;;;36.00;64.00;;;40.27;43.79;100536.16;5233559;28;20048;-70
2023/06/20 09:10:40;;;;;;;5.10;3.35;;;36.30;63.40;;;40.45;43.29;100523.47;5240155;28;20048;-67
2023/06/20 09:13:13;;;;;;;3.67;3.10;;;36.50;62.10;;;40.68;43.29;100519.41;5233885;28;20107;-67
2023/06/20 09:15:46;;;;;;;4.50;3.00;;;36.70;61.80;;;40.96;43.62;100522.25;5240518;28;20060;-67
2023/06/20 09:18:19;;;;;;;3.28;2.95;;;36.90;61.90;;;41.02;42.99;100531.72;5239649;28;20094;-67
2023/06/20 09:20:51;;;;;;;3.88;3.20;;;37.00;60.90;;;40.92;42.23;100524.44;5240484;28;20036;-67
2023/06/20 09:23:29;;;;;;;4.63;3.03;;;37.10;60.70;;;40.61;43.36;100529.22;5226678;28;20053;-67
2023/06/20 09:26:16;;;;;;;3.55;2.92;;;37.00;60.00;;;40.05;43.83;100532.72;5227008;28;20555;-67
2023/06/20 09:28:49;;;;;;;4.13;3.40;;;36.80;60.30;;;39.30;44.93;100527.75;5226543;28;20158;-66
2023/06/20 09:31:22;;;;;;;3.85;3.13;;;36.50;60.50;;;38.51;46.37;100531.03;5225683;28;20090;-67
2023/06/20 09:33:54;;;;;;;4.55;3.08;;;36.20;61.10;;;37.60;47.51;100520.56;5219280;28;20045;-67
2023/06/20 09:36:27;;;;;;;3.80;3.20;;;35.60;61.20;;;36.86;49.03;100522.06;5225838;28;20049;-66
2023/06/20 09:39:01;;;;;;;4.47;3.50;;;35.30;62.20;;;36.21;50.33;100518.03;5219373;28;20041;-67
2023/06/20 09:41:33;;;;;;;4.55;3.35;;;34.80;63.00;;;35.41;52.21;100511.38;5191298;28;20037;-66
2023/06/20 09:44:06;;;;;;;4.43;3.33;;;34.30;63.60;;;34.89;53.51;100509.72;5205292;28;20128;-66
2023/06/20 09:46:38;;;;;;;;;;;33.80;65.10;;;34.52;54.71;100496.06;5231966;28;20505;-66
2023/06/20 09:49:13;;;;;;;4.88;3.20;;;33.60;65.70;;;34.09;55.99;100498.13;5224963;28;19960;-66
2023/06/20 09:51:49;;;;;;;4.97;3.60;;;33.10;66.60;;;34.10;55.80;100489.03;5238303;28;20469;-66
2023/06/20 09:54:35;;;;;;;5.22;3.40;;;33.00;67.00;;;34.14;55.91;100485.16;5220613;28;20083;-66
2023/06/20 09:57:15;;;;;;;4.95;3.50;;;33.00;67.30;;;33.94;56.66;100483.81;5225497;28;20052;-67
2023/06/20 09:59:51;;;;;;;4.25;3.65;;;32.90;67.60;;;33.86;57.59;100475.31;5219841;28;20041;-66
2023/06/20 10:02:26;;;;;;;4.63;3.38;;;32.80;68.60;;;33.89;57.95;100485.91;5226278;28;20040;-66
2023/06/20 10:05:01;;;;;;;4.47;3.40;;;32.70;69.00;;;33.61;57.82;100487.75;5218260;28;20055;-66
2023/06/20 10:07:34;;;;;;;4.28;3.50;;;32.60;68.50;;;33.50;58.43;100479.50;5225000;28;20052;-66
2023/06/20 10:10:07;;;;;;;5.88;3.80;;;32.50;69.20;;;33.39;58.17;100477.50;5241039;28;20684;-66
2023/06/20 10:12:41;;;;;;;4.70;3.47;;;32.40;68.70;;;33.36;58.60;100482.19;5224840;28;20082;-66
2023/06/20 10:15:16;;;;;;;3.83;3.20;;;32.40;69.40;;;33.36;58.23;100482.19;5226313;28;20045;-66
2023/06/20 10:17:48;;;;;;;4.80;3.67;;;32.40;69.00;;;32.85;59.47;100474.59;5222200;28;20536;-67
2023/06/20 10:20:29;;;;;;;4.30;3.53;;;32.00;69.50;;;32.88;60.59;100465.50;5213401;28;20503;-65
2023/06/20 10:23:05;;;;;;;4.65;3.22;;;32.00;70.80;;;33.05;60.57;100473.38;5220959;28;20045;-66
2023/06/20 10:25:52;;;;;;;4.88;3.53;;;32.00;71.00;;;33.21;59.33;100474.13;5222851;28;20065;-66
2023/06/20 10:28:24;;;;;;;4.43;3.40;;;32.10;70.30;;;33.37;58.75;100462.31;5224948;28;20048;-66
2023/06/20 10:31:00;;;;;;;4.32;3.25;;;32.20;69.80;;;33.48;57.68;100471.50;5216785;28;20043;-65
2023/06/20 10:33:33;;;;;;;4.22;3.30;;;32.40;69.20;;;33.63;57.41;100464.19;5224853;28;20037;-66
2023/06/20 10:36:07;;;;;;;4.78;3.30;;;32.50;68.80;;;33.79;57.78;100455.09;5207904;28;20037;-66
2023/06/20 10:39:10;;;;;;;4.63;3.55;;;32.60;69.30;;;33.96;58.04;100462.94;5225461;28;20052;-66